createdAt,value
2022-08-20T00:02:14.748Z,98264.56
2022-08-20T00:04:42.120Z,98268.53
2022-08-20T00:07:09.310Z,98266.50
2022-08-20T00:09:37.058Z,98266.56
2022-08-20T00:12:05.493Z,98268.22
2022-08-20T00:14:33.881Z,98263.81
2022-08-20T00:17:04.039Z,98269.03
2022-08-20T00:19:31.337Z,98278.84
2022-08-20T00:21:58.699Z,98267.97
2022-08-20T00:24:26.082Z,98268.81
2022-08-20T00:26:53.561Z,98273.09
2022-08-20T00:29:22.490Z,98258.81
2022-08-20T00:31:50.543Z,98271.41
2022-08-20T00:34:19.484Z,98268.59
2022-08-20T00:36:47.056Z,98266.34
2022-08-20T00:39:14.454Z,98265.84
2022-08-20T00:41:41.605Z,98273.97
2022-08-20T00:44:11.559Z,98258.88
2022-08-20T00:46:40.542Z,98257.88
2022-08-20T00:49:12.534Z,98266.78
2022-08-20T00:51:44.338Z,98264.47
2022-08-20T00:54:20.776Z,98272.41
2022-08-20T00:56:50.948Z,98269.66
2022-08-20T00:59:23.906Z,98271.03
2022-08-20T01:01:55.091Z,98274.22
2022-08-20T01:04:25.498Z,98274.03
2022-08-20T01:06:54.477Z,98271.41
2022-08-20T01:09:49.905Z,98269.13
2022-08-20T01:12:10.487Z,98263.72
2022-08-20T01:14:46.842Z,98265.81
2022-08-20T01:17:17.830Z,98270.56
2022-08-20T01:19:49.445Z,98274.31
2022-08-20T01:22:44.041Z,98276.69
2022-08-20T01:25:19.497Z,98267.31
2022-08-20T01:27:55.665Z,98260.81
2022-08-20T01:30:26.846Z,98265.53
2022-08-20T01:32:54.168Z,98276.78
2022-08-20T01:35:22.461Z,98270.00
2022-08-20T01:37:49.928Z,98258.53
2022-08-20T01:40:27.953Z,98262.50
2022-08-20T01:42:59.671Z,98258.34
2022-08-20T01:45:29.264Z,98259.88
2022-08-20T01:47:58.379Z,98259.31
2022-08-20T01:50:29.072Z,98245.19
2022-08-20T01:53:01.117Z,98257.69
2022-08-20T01:55:28.446Z,98243.88
2022-08-20T01:57:57.807Z,98249.84
2022-08-20T02:00:25.296Z,98255.63
2022-08-20T02:02:52.461Z,98257.22
2022-08-20T02:05:20.385Z,98258.53
2022-08-20T02:07:47.874Z,98254.09
2022-08-20T02:10:18.842Z,98236.88
2022-08-20T02:12:46.109Z,98246.81
2022-08-20T02:15:15.185Z,98243.72
2022-08-20T02:17:44.317Z,98243.22
2022-08-20T02:20:15.535Z,98241.69
2022-08-20T02:22:50.147Z,98242.44
2022-08-20T02:25:18.760Z,98242.44
2022-08-20T02:27:48.809Z,98248.81
2022-08-20T02:30:27.484Z,98240.22
2022-08-20T02:32:56.285Z,98236.63
2022-08-20T02:35:24.496Z,98243.47
2022-08-20T02:37:52.727Z,98240.38
2022-08-20T02:40:30.622Z,98243.75
2022-08-20T02:42:59.960Z,98247.16
2022-08-20T02:45:30.628Z,98243.81
2022-08-20T02:47:59.116Z,98241.75
2022-08-20T02:50:27.769Z,98238.34
2022-08-20T02:52:55.110Z,98233.69
2022-08-20T02:55:27.497Z,98231.94
2022-08-20T02:57:57.904Z,98239.53
2022-08-20T03:00:37.811Z,98228.38
2022-08-20T03:03:07.226Z,98230.47
2022-08-20T03:05:34.578Z,98227.13
2022-08-20T03:08:01.785Z,98234.94
2022-08-20T03:10:32.306Z,98233.09
2022-08-20T03:13:02.278Z,98233.88
2022-08-20T03:15:32.891Z,98222.94
2022-08-20T03:18:01.046Z,98223.50
2022-08-20T03:20:30.293Z,98219.31
2022-08-20T03:22:59.205Z,98224.06
2022-08-20T03:25:26.808Z,98216.50
2022-08-20T03:27:54.809Z,98213.66
2022-08-20T03:30:24.450Z,98219.22
2022-08-20T03:32:53.601Z,98223.72
2022-08-20T03:35:22.953Z,98231.84
2022-08-20T03:37:50.547Z,98225.06
2022-08-20T03:40:22.970Z,98235.50
2022-08-20T03:42:52.617Z,98236.00
2022-08-20T03:45:20.913Z,98234.94
2022-08-20T03:47:48.905Z,98232.56
2022-08-20T03:50:22.708Z,98228.59
2022-08-20T03:52:51.281Z,98218.97
2022-08-20T03:55:18.950Z,98217.91
2022-08-20T03:57:47.749Z,98218.59
2022-08-20T04:00:19.399Z,98216.25
2022-08-20T04:02:46.708Z,98223.72
2022-08-20T04:05:14.061Z,98227.81
2022-08-20T04:07:42.617Z,98233.22
2022-08-20T04:10:11.391Z,98235.47
2022-08-20T04:12:48.632Z,98241.16
2022-08-20T04:15:21.325Z,98242.38
2022-08-20T04:17:54.298Z,98244.63
2022-08-20T04:20:25.907Z,98253.38
2022-08-20T04:22:59.289Z,98257.97
2022-08-20T04:25:29.536Z,98249.25
2022-08-20T04:27:58.271Z,98250.94
2022-08-20T04:30:26.345Z,98242.25
2022-08-20T04:32:54.408Z,98254.94
2022-08-20T04:35:24.797Z,98249.34
2022-08-20T04:37:59.749Z,98254.28
2022-08-20T04:40:47.002Z,98254.53
2022-08-20T04:43:14.801Z,98258.53
2022-08-20T04:45:42.568Z,98254.44
2022-08-20T04:48:14.721Z,98252.56
2022-08-20T04:50:44.749Z,98249.22
2022-08-20T04:53:19.131Z,98249.84
2022-08-20T04:55:48.522Z,98252.50
2022-08-20T04:58:18.449Z,98252.16
2022-08-20T05:00:48.048Z,98256.47
2022-08-20T05:03:15.773Z,98258.06
2022-08-20T05:05:45.145Z,98260.16
2022-08-20T05:08:20.171Z,98259.19
2022-08-20T05:10:47.706Z,98254.69
2022-08-20T05:13:14.958Z,98249.03
2022-08-20T05:15:42.697Z,98253.31
2022-08-20T05:18:10.203Z,98252.22
2022-08-20T05:20:40.389Z,98253.28
2022-08-20T05:23:09.042Z,98252.63
2022-08-20T05:25:38.529Z,98254.00
2022-08-20T05:28:09.683Z,98248.09
2022-08-20T05:30:37.436Z,98243.94
2022-08-20T05:33:05.919Z,98245.81
2022-08-20T05:35:35.932Z,98250.44
2022-08-20T05:38:03.223Z,98248.47
2022-08-20T05:40:30.690Z,98248.34
2022-08-20T05:42:59.233Z,98245.56
2022-08-20T05:45:26.674Z,98246.00
2022-08-20T05:47:56.596Z,98239.84
2022-08-20T05:50:24.071Z,98244.09
2022-08-20T05:52:51.494Z,98243.31
2022-08-20T05:55:18.810Z,98242.00
2022-08-20T05:57:46.145Z,98234.59
2022-08-20T06:00:15.309Z,98236.44
2022-08-20T06:03:01.498Z,98237.94
2022-08-20T06:05:28.910Z,98239.81
2022-08-20T06:07:57.921Z,98234.63
2022-08-20T06:10:36.503Z,98247.00
2022-08-20T06:13:04.990Z,98239.91
2022-08-20T06:15:35.414Z,98244.59
2022-08-20T06:18:16.648Z,98245.00
2022-08-20T06:20:55.392Z,98237.34
2022-08-20T06:23:25.326Z,98243.47
2022-08-20T06:25:53.017Z,98239.94
2022-08-20T06:28:20.753Z,98242.34
2022-08-20T06:30:49.336Z,98234.88
2022-08-20T06:33:16.606Z,98229.97
2022-08-20T06:35:44.753Z,98231.13
2022-08-20T06:38:12.929Z,98231.41
2022-08-20T06:40:40.102Z,98233.50
2022-08-20T06:43:09.169Z,98229.00
2022-08-20T06:45:38.924Z,98225.25
2022-08-20T06:48:15.067Z,98227.97
2022-08-20T06:50:47.327Z,98227.91
2022-08-20T06:53:18.473Z,98222.31
2022-08-20T06:55:48.763Z,98231.88
2022-08-20T06:58:35.684Z,98231.38
2022-08-20T07:01:05.244Z,98233.16
2022-08-20T07:03:39.292Z,98223.50
2022-08-20T07:06:09.765Z,98221.34
2022-08-20T07:08:37.196Z,98217.22
2022-08-20T07:11:04.705Z,98222.84
2022-08-20T07:13:32.066Z,98221.09
2022-08-20T07:15:59.240Z,98207.19
2022-08-20T07:18:27.912Z,98208.09
2022-08-20T07:20:57.787Z,98209.91
2022-08-20T07:23:25.666Z,98203.31
2022-08-20T07:25:53.642Z,98200.59
2022-08-20T07:28:24.037Z,98202.38
2022-08-20T07:31:12.726Z,98197.91
2022-08-20T07:33:42.335Z,98183.66
2022-08-20T07:36:13.991Z,98181.16
2022-08-20T07:38:41.485Z,98177.16
2022-08-20T07:41:13.173Z,98181.41
2022-08-20T07:43:41.180Z,98169.41
2022-08-20T07:46:09.346Z,98174.19
2022-08-20T07:48:40.063Z,98168.25
2022-08-20T07:51:09.209Z,98167.16
2022-08-20T07:53:40.350Z,98171.59
2022-08-20T07:56:11.678Z,98168.16
2022-08-20T07:58:42.730Z,98170.09
2022-08-20T08:01:11.492Z,98171.38
2022-08-20T08:03:48.966Z,98165.88
2022-08-20T08:06:29.966Z,98156.44
2022-08-20T08:09:03.433Z,98156.91
2022-08-20T08:11:32.441Z,98160.75
2022-08-20T08:14:00.343Z,98160.06
2022-08-20T08:16:28.661Z,98153.28
2022-08-20T08:18:56.927Z,98154.06
2022-08-20T08:21:25.770Z,98154.06
2022-08-20T08:23:53.594Z,98146.91
2022-08-20T08:26:22.447Z,98146.50
2022-08-20T08:28:49.716Z,98140.78
2022-08-20T08:31:17.017Z,98137.34
2022-08-20T08:33:44.682Z,98138.84
2022-08-20T08:36:14.878Z,98138.88
2022-08-20T08:38:45.577Z,98127.41
2022-08-20T08:41:17.230Z,98140.41
2022-08-20T08:43:48.139Z,98123.22
2022-08-20T08:46:22.677Z,98128.13
2022-08-20T08:48:53.440Z,98119.72
2022-08-20T08:51:28.239Z,98118.13
2022-08-20T08:53:57.105Z,98116.84
2022-08-20T08:56:27.984Z,98115.63
2022-08-20T08:59:00.573Z,98110.47
2022-08-20T09:01:55.424Z,98103.66
2022-08-20T09:04:21.702Z,98112.13
2022-08-20T09:06:52.250Z,98106.34
2022-08-20T09:09:25.046Z,98104.66
2022-08-20T09:11:55.477Z,98113.50
2022-08-20T09:14:27.060Z,98107.44
2022-08-20T09:16:54.282Z,98108.69
2022-08-20T09:19:21.649Z,98103.72
2022-08-20T09:21:49.569Z,98104.41
2022-08-20T09:24:16.806Z,98097.88
2022-08-20T09:26:44.257Z,98098.63
2022-08-20T09:29:11.608Z,98102.09
2022-08-20T09:31:40.925Z,98099.78
2022-08-20T09:34:08.210Z,98097.81
2022-08-20T09:36:35.480Z,98097.28
2022-08-20T09:39:03.381Z,98086.34
2022-08-20T09:41:31.014Z,98084.59
2022-08-20T09:44:01.494Z,98083.66
2022-08-20T09:46:28.666Z,98084.03
2022-08-20T09:48:57.468Z,98076.00
2022-08-20T09:51:24.858Z,98080.91
2022-08-20T09:53:52.157Z,98085.41
2022-08-20T09:56:19.597Z,98084.06
2022-08-20T09:58:50.112Z,98077.22
2022-08-20T10:01:19.807Z,98076.88
2022-08-20T10:03:49.123Z,98075.03
2022-08-20T10:06:20.242Z,98070.59
2022-08-20T10:08:48.774Z,98066.22
2022-08-20T10:11:16.419Z,98062.28
2022-08-20T10:13:45.594Z,98049.72
2022-08-20T10:16:12.811Z,98056.34
2022-08-20T10:18:40.129Z,98047.22
2022-08-20T10:21:09.975Z,98049.50
2022-08-20T10:23:38.691Z,98058.94
2022-08-20T10:26:07.652Z,98053.91
2022-08-20T10:28:35.459Z,98053.03
2022-08-20T10:31:04.682Z,98048.47
2022-08-20T10:33:31.913Z,98049.69
2022-08-20T10:36:05.817Z,98047.47
2022-08-20T10:38:32.900Z,98032.69
2022-08-20T10:41:01.618Z,98034.66
2022-08-20T10:43:29.026Z,98028.31
2022-08-20T10:45:56.550Z,98022.91
2022-08-20T10:48:24.420Z,98018.84
2022-08-20T10:50:51.888Z,98011.88
2022-08-20T10:53:19.333Z,98024.88
2022-08-20T10:55:47.066Z,98024.91
2022-08-20T10:58:15.675Z,98028.97
2022-08-20T11:00:43.238Z,98023.38
2022-08-20T11:03:10.422Z,98028.94
2022-08-20T11:05:37.714Z,98023.13
2022-08-20T11:08:05.906Z,98009.66
2022-08-20T11:10:35.220Z,98003.38
2022-08-20T11:13:03.161Z,98000.25
2022-08-20T11:15:33.945Z,98000.66
2022-08-20T11:18:01.626Z,98005.16
2022-08-20T11:20:30.413Z,98002.06
2022-08-20T11:22:58.439Z,98007.09
2022-08-20T11:25:26.082Z,97998.56
2022-08-20T11:27:54.502Z,98001.81
2022-08-20T11:30:24.358Z,98001.47
2022-08-20T11:32:53.120Z,97998.69
2022-08-20T11:35:43.289Z,97989.31
2022-08-20T11:38:11.263Z,97988.69
2022-08-20T11:40:38.740Z,97992.75
2022-08-20T11:43:15.220Z,97985.06
2022-08-20T11:45:44.522Z,97984.66
2022-08-20T11:48:13.907Z,97982.44
2022-08-20T11:50:41.266Z,97988.00
2022-08-20T11:53:08.433Z,97979.25
2022-08-20T11:55:36.217Z,97970.47
2022-08-20T11:58:04.081Z,97966.59
2022-08-20T12:00:33.919Z,97976.53
2022-08-20T12:03:02.235Z,97969.94
2022-08-20T12:05:30.933Z,97967.25
2022-08-20T12:08:00.305Z,97960.06
2022-08-20T12:10:28.320Z,97955.09
2022-08-20T12:12:55.735Z,97963.22
2022-08-20T12:15:23.134Z,97956.88
2022-08-20T12:17:50.427Z,97951.03
2022-08-20T12:20:17.650Z,97948.00
2022-08-20T12:22:46.609Z,97945.41
2022-08-20T12:25:14.133Z,97947.81
2022-08-20T12:27:42.285Z,97934.97
2022-08-20T12:30:12.459Z,97946.88
2022-08-20T12:32:40.029Z,97942.53
2022-08-20T12:35:08.789Z,97937.66
2022-08-20T12:37:36.950Z,97931.56
2022-08-20T12:40:09.457Z,97928.50
2022-08-20T12:42:37.146Z,97924.97
2022-08-20T12:45:05.609Z,97926.72
2022-08-20T12:47:34.661Z,97931.63
2022-08-20T12:50:05.437Z,97917.66
2022-08-20T12:52:32.868Z,97921.91
2022-08-20T12:55:00.965Z,97919.56
2022-08-20T12:57:32.205Z,97923.28
2022-08-20T13:00:03.722Z,97918.91
2022-08-20T13:02:32.337Z,97919.81
2022-08-20T13:05:04.607Z,97912.41
2022-08-20T13:07:33.247Z,97911.50
2022-08-20T13:10:01.190Z,97910.94
2022-08-20T13:12:29.878Z,97911.09
2022-08-20T13:14:57.210Z,97905.50
2022-08-20T13:17:38.454Z,97911.63
2022-08-20T13:20:10.124Z,97908.69
2022-08-20T13:22:37.531Z,97908.34
2022-08-20T13:25:05.468Z,97911.50
2022-08-20T13:27:38.376Z,97907.34
2022-08-20T13:30:08.309Z,97897.78
2022-08-20T13:32:35.632Z,97890.53
2022-08-20T13:35:03.321Z,97896.22
2022-08-20T13:37:30.777Z,97895.25
2022-08-20T13:39:59.632Z,97888.88
2022-08-20T13:42:27.828Z,97891.53
2022-08-20T13:44:56.590Z,97881.69
2022-08-20T13:47:26.385Z,97883.91
2022-08-20T13:49:59.063Z,97866.66
2022-08-20T13:52:27.438Z,97860.22
2022-08-20T13:54:54.981Z,97872.72
2022-08-20T13:57:23.712Z,97864.34
2022-08-20T13:59:53.055Z,97873.63
2022-08-20T14:02:22.641Z,97860.38
2022-08-20T14:04:51.221Z,97850.88
2022-08-20T14:07:21.872Z,97852.00
2022-08-20T14:09:51.762Z,97850.38
2022-08-20T14:12:18.909Z,97847.25
2022-08-20T14:14:46.209Z,97845.59
2022-08-20T14:17:20.121Z,97851.19
2022-08-20T14:19:49.139Z,97842.53
2022-08-20T14:22:17.866Z,97840.06
2022-08-20T14:24:46.166Z,97831.16
2022-08-20T14:27:15.113Z,97828.53
2022-08-20T14:29:45.993Z,97820.59
2022-08-20T14:32:13.575Z,97831.81
2022-08-20T14:34:41.625Z,97825.47
2022-08-20T14:37:16.191Z,97824.63
2022-08-20T14:39:45.390Z,97818.78
2022-08-20T14:42:12.809Z,97816.09
2022-08-20T14:44:40.981Z,97817.72
2022-08-20T14:47:14.150Z,97811.50
2022-08-20T14:49:42.214Z,97816.00
2022-08-20T14:52:09.417Z,97808.91
2022-08-20T14:54:38.349Z,97807.47
2022-08-20T14:57:13.062Z,97809.84
2022-08-20T14:59:41.341Z,97819.84
2022-08-20T15:02:10.721Z,97820.63
2022-08-20T15:04:38.258Z,97823.34
2022-08-20T15:07:16.354Z,97816.47
2022-08-20T15:09:45.070Z,97828.28
2022-08-20T15:12:12.346Z,97822.53
2022-08-20T15:14:39.656Z,97818.38
2022-08-20T15:17:10.269Z,97811.88
2022-08-20T15:19:37.419Z,97812.25
2022-08-20T15:22:04.962Z,97822.97
2022-08-20T15:24:32.132Z,97827.16
2022-08-20T15:27:11.262Z,97825.63
2022-08-20T15:29:38.785Z,97828.28
2022-08-20T15:32:07.669Z,97828.28
2022-08-20T15:34:35.063Z,97821.41
2022-08-20T15:37:07.252Z,97821.03
2022-08-20T15:39:34.552Z,97829.78
2022-08-20T15:42:04.465Z,97825.97
2022-08-20T15:44:31.906Z,97825.22
2022-08-20T15:47:15.728Z,97827.91
2022-08-20T15:49:43.890Z,97834.41
2022-08-20T15:52:11.898Z,97835.91
2022-08-20T15:54:39.875Z,97840.47
2022-08-20T15:57:12.709Z,97843.16
2022-08-20T15:59:54.682Z,97837.06
2022-08-20T16:02:49.215Z,97830.56
2022-08-20T16:05:19.779Z,97830.16
2022-08-20T16:07:58.753Z,97835.50
2022-08-20T16:10:34.242Z,97833.19
2022-08-20T16:13:09.703Z,97835.84
2022-08-20T16:15:41.171Z,97832.41
2022-08-20T16:18:17.010Z,97832.78
2022-08-20T16:20:47.995Z,97834.25
2022-08-20T16:23:18.106Z,97841.09
2022-08-20T16:26:05.850Z,97839.91
2022-08-20T16:28:47.234Z,97842.50
2022-08-20T16:31:18.898Z,97850.06
2022-08-20T16:33:58.502Z,97851.09
2022-08-20T16:36:34.765Z,97849.84
2022-08-20T16:39:05.259Z,97850.91
2022-08-20T16:41:37.258Z,97848.13
2022-08-20T16:44:12.591Z,97849.16
2022-08-20T16:46:49.193Z,97858.94
2022-08-20T16:49:16.649Z,97853.13
2022-08-20T16:51:51.727Z,97855.66
2022-08-20T16:54:29.325Z,97861.22
2022-08-20T16:57:00.475Z,97859.53
2022-08-20T16:59:29.524Z,97862.78
2022-08-20T17:02:10.434Z,97861.13
2022-08-20T17:04:46.242Z,97866.28
2022-08-20T17:07:30.988Z,97868.00
2022-08-20T17:10:11.763Z,97868.56
2022-08-20T17:12:39.125Z,97867.31
2022-08-20T17:15:17.946Z,97878.19
2022-08-20T17:17:45.203Z,97871.28
2022-08-20T17:20:20.242Z,97864.31
2022-08-20T17:22:50.091Z,97875.63
2022-08-20T17:25:19.846Z,97860.22
2022-08-20T17:27:48.149Z,97877.91
2022-08-20T17:30:25.608Z,97873.94
2022-08-20T17:32:58.364Z,97871.50
2022-08-20T17:35:32.881Z,97866.44
2022-08-20T17:38:04.433Z,97870.84
2022-08-20T17:40:39.987Z,97885.09
2022-08-20T17:43:08.972Z,97892.47
2022-08-20T17:45:41.492Z,97897.31
2022-08-20T17:48:13.625Z,97896.00
2022-08-20T17:50:42.710Z,97897.81
2022-08-20T17:53:19.879Z,97906.75
2022-08-20T17:55:53.464Z,97910.44
2022-08-20T17:58:24.760Z,97908.41
2022-08-20T18:00:53.328Z,97911.06
2022-08-20T18:03:23.307Z,97921.22
2022-08-20T18:05:57.026Z,97922.34
2022-08-20T18:08:35.291Z,97923.88
2022-08-20T18:11:09.961Z,97929.06
2022-08-20T18:13:48.228Z,97943.38
2022-08-20T18:16:26.279Z,97953.44
2022-08-20T18:18:58.617Z,97953.78
2022-08-20T18:21:58.286Z,97962.41
2022-08-20T18:24:33.592Z,97964.91
2022-08-20T18:27:09.040Z,97973.09
2022-08-20T18:29:41.277Z,97983.50
2022-08-20T18:32:28.662Z,97984.53
2022-08-20T18:35:08.916Z,97993.94
2022-08-20T18:37:36.329Z,97991.56
2022-08-20T18:40:14.261Z,97995.91
2022-08-20T18:42:41.577Z,98003.13
2022-08-20T18:45:10.146Z,98005.94
2022-08-20T18:47:45.294Z,98004.31
2022-08-20T18:50:25.585Z,98005.06
2022-08-20T18:53:08.767Z,98006.16
2022-08-20T18:55:39.134Z,98012.50
2022-08-20T18:58:09.254Z,98010.09
2022-08-20T19:00:41.679Z,98006.06
2022-08-20T19:03:20.711Z,98004.00
2022-08-20T19:06:04.330Z,98003.56
2022-08-20T19:08:42.955Z,98002.91
2022-08-20T19:11:30.501Z,98003.66
2022-08-20T19:14:20.745Z,98007.06
2022-08-20T19:16:53.132Z,98003.91
2022-08-20T19:19:24.522Z,98003.38
2022-08-20T19:21:52.516Z,98007.56
2022-08-20T19:24:26.266Z,98018.47
2022-08-20T19:26:57.563Z,98008.66
2022-08-20T19:29:28.396Z,98016.81
2022-08-20T19:31:59.576Z,98028.81
2022-08-20T19:34:29.382Z,98035.22
2022-08-20T19:37:05.185Z,98055.38
2022-08-20T19:39:47.147Z,98053.00
2022-08-20T19:42:17.127Z,98049.91
2022-08-20T19:44:55.590Z,98044.41
2022-08-20T19:47:30.294Z,98052.78
2022-08-20T19:50:16.485Z,98048.16
2022-08-20T19:52:56.169Z,98053.25
2022-08-20T19:55:26.205Z,98056.34
2022-08-20T19:57:57.816Z,98057.00
2022-08-20T20:00:27.062Z,98060.75
2022-08-20T20:02:55.111Z,98068.03
2022-08-20T20:05:23.882Z,98072.72
2022-08-20T20:07:57.176Z,98077.22
2022-08-20T20:10:32.310Z,98067.78
2022-08-20T20:13:08.018Z,98075.38
2022-08-20T20:15:35.953Z,98068.44
2022-08-20T20:18:03.234Z,98053.16
2022-08-20T20:20:33.749Z,98057.00
2022-08-20T20:23:12.366Z,98068.41
2022-08-20T20:25:43.256Z,98061.81
2022-08-20T20:28:14.505Z,98058.91
2022-08-20T20:30:44.755Z,98036.91
2022-08-20T20:33:15.580Z,98035.81
2022-08-20T20:35:45.369Z,98037.88
2022-08-20T20:38:23.486Z,98025.69
2022-08-20T20:40:54.342Z,98024.78
2022-08-20T20:43:28.777Z,98024.78
2022-08-20T20:46:06.646Z,98017.09
2022-08-20T20:48:43.616Z,98022.81
2022-08-20T20:51:22.664Z,98022.56
2022-08-20T20:53:54.849Z,98034.59
2022-08-20T20:56:28.727Z,98037.53
2022-08-20T20:58:56.526Z,98037.25
2022-08-20T21:01:41.459Z,98039.13
2022-08-20T21:04:11.267Z,98039.22
2022-08-20T21:06:39.813Z,98041.38
2022-08-20T21:09:07.618Z,98040.91
2022-08-20T21:11:34.996Z,98040.66
2022-08-20T21:14:02.115Z,98042.97
2022-08-20T21:16:30.181Z,98050.56
2022-08-20T21:18:58.423Z,98059.56
2022-08-20T21:21:25.830Z,98054.94
2022-08-20T21:23:54.493Z,98060.38
2022-08-20T21:26:21.822Z,98058.06
2022-08-20T21:28:49.121Z,98058.41
2022-08-20T21:31:16.378Z,98058.91
2022-08-20T21:33:43.567Z,98056.16
2022-08-20T21:36:11.007Z,98058.81
2022-08-20T21:38:38.168Z,98061.63
2022-08-20T21:41:07.000Z,98065.41
2022-08-20T21:43:34.277Z,98076.44
2022-08-20T21:46:03.666Z,98075.97
2022-08-20T21:48:30.867Z,98068.91
2022-08-20T21:50:58.130Z,98082.06
2022-08-20T21:53:25.391Z,98073.50
2022-08-20T21:55:52.743Z,98071.06
2022-08-20T21:58:21.457Z,98072.91
2022-08-20T22:00:54.573Z,98080.38
2022-08-20T22:03:28.015Z,98079.16
2022-08-20T22:05:56.178Z,98079.66
2022-08-20T22:08:26.162Z,98080.28
2022-08-20T22:10:57.258Z,98074.91
2022-08-20T22:13:31.267Z,98076.78
2022-08-20T22:15:58.680Z,98081.16
2022-08-20T22:18:25.997Z,98076.06
2022-08-20T22:20:53.537Z,98078.09
2022-08-20T22:23:21.208Z,98078.09
2022-08-20T22:25:48.993Z,98079.19
2022-08-20T22:28:16.521Z,98066.34
2022-08-20T22:30:45.526Z,98064.97
2022-08-20T22:33:20.926Z,98063.44
2022-08-20T22:35:50.846Z,98066.09
2022-08-20T22:38:18.272Z,98068.63
2022-08-20T22:40:45.834Z,98069.56
2022-08-20T22:43:13.624Z,98073.47
2022-08-20T22:45:43.480Z,98074.69
2022-08-20T22:48:16.813Z,98084.91
2022-08-20T22:50:45.265Z,98090.75
2022-08-20T22:53:13.680Z,98089.41
2022-08-20T22:55:41.842Z,98070.38
2022-08-20T22:58:09.160Z,98076.69
2022-08-20T23:00:38.093Z,98076.38
2022-08-20T23:03:07.171Z,98091.41
2022-08-20T23:05:38.001Z,98077.47
2022-08-20T23:08:06.630Z,98086.47
2022-08-20T23:10:37.674Z,98088.00
2022-08-20T23:13:04.894Z,98092.34
2022-08-20T23:15:35.035Z,98092.47
2022-08-20T23:18:08.050Z,98097.09
2022-08-20T23:20:37.657Z,98098.19
2022-08-20T23:23:05.432Z,98102.34
2022-08-20T23:25:33.488Z,98110.09
2022-08-20T23:28:04.174Z,98112.72
2022-08-20T23:30:32.072Z,98109.63
2022-08-20T23:33:01.846Z,98103.31
2022-08-20T23:35:33.058Z,98105.16
2022-08-20T23:38:02.025Z,98103.59
2022-08-20T23:40:30.257Z,98105.75
2022-08-20T23:42:58.181Z,98115.78
2022-08-20T23:45:26.699Z,98112.22
2022-08-20T23:47:54.232Z,98115.16
2022-08-20T23:50:24.218Z,98115.47
2022-08-20T23:52:52.073Z,98109.44
2022-08-20T23:55:22.750Z,98118.25
2022-08-20T23:57:51.131Z,98113.00
